createdAt,value
2023-05-14T00:01:53.006Z,101799.25
2023-05-14T00:06:48.980Z,101794.09
2023-05-14T00:11:19.238Z,101800.16
2023-05-14T00:15:48.632Z,101790.59
2023-05-14T00:39:18.393Z,101771.66
2023-05-14T00:43:44.407Z,101773.44
2023-05-14T00:47:50.864Z,101770.72
2023-05-14T00:52:09.281Z,101762.78
2023-05-14T00:56:16.490Z,101765.59
2023-05-14T01:00:21.088Z,101762.09
2023-05-14T01:04:44.692Z,101758.66
2023-05-14T01:08:59.667Z,101762.91
2023-05-14T01:13:06.257Z,101748.56
2023-05-14T01:17:09.143Z,101755.38
2023-05-14T01:21:41.430Z,101762.16
2023-05-14T01:25:48.116Z,101759.41
2023-05-14T01:30:32.177Z,101763.75
2023-05-14T01:34:57.554Z,101761.13
2023-05-14T01:39:17.554Z,101760.13
2023-05-14T01:43:20.710Z,101757.44
2023-05-14T01:47:45.826Z,101757.94
2023-05-14T01:56:57.636Z,101753.44
2023-05-14T02:01:09.500Z,101756.66
2023-05-14T02:05:20.424Z,101756.06
2023-05-14T02:14:11.270Z,101757.06
2023-05-14T02:18:27.400Z,101760.63
2023-05-14T02:22:41.535Z,101751.84
2023-05-14T02:26:46.270Z,101742.41
2023-05-14T02:31:15.013Z,101736.38
2023-05-14T02:35:20.133Z,101741.66
2023-05-14T02:39:41.110Z,101741.88
2023-05-14T02:44:06.661Z,101734.28
2023-05-14T02:48:21.262Z,101734.47
2023-05-14T02:52:44.198Z,101737.75
2023-05-14T02:56:52.057Z,101739.56
2023-05-14T03:00:53.709Z,101744.88
2023-05-14T03:05:18.992Z,101740.34
2023-05-14T03:14:20.698Z,101755.38
2023-05-14T03:18:41.403Z,101763.97
2023-05-14T03:22:49.007Z,101772.50
2023-05-14T03:26:51.645Z,101761.09
2023-05-14T03:31:14.305Z,101761.63
2023-05-14T03:35:22.104Z,101753.81
2023-05-14T03:39:37.249Z,101757.25
2023-05-14T03:43:45.097Z,101766.88
2023-05-14T03:47:52.010Z,101767.09
2023-05-14T03:52:04.575Z,101766.16
2023-05-14T03:56:15.038Z,101775.34
2023-05-14T04:00:19.177Z,101776.25
2023-05-14T04:04:23.925Z,101773.22
2023-05-14T04:08:25.877Z,101777.84
2023-05-14T04:16:54.293Z,101784.09
2023-05-14T04:20:55.179Z,101791.91
2023-05-14T04:24:59.180Z,101797.91
2023-05-14T04:29:06.764Z,101797.47
2023-05-14T04:33:13.192Z,101789.53
2023-05-14T04:37:18.284Z,101774.91
2023-05-14T04:41:18.311Z,101776.47
2023-05-14T04:45:22.335Z,101772.34
2023-05-14T04:49:25.323Z,101774.78
2023-05-14T04:53:26.786Z,101767.06
2023-05-14T04:57:32.343Z,101766.00
2023-05-14T05:01:34.795Z,101763.34
2023-05-14T05:05:38.240Z,101761.81
2023-05-14T05:09:38.595Z,101762.81
2023-05-14T05:13:38.962Z,101768.47
2023-05-14T05:17:40.835Z,101779.19
2023-05-14T05:21:41.943Z,101786.41
2023-05-14T05:25:42.700Z,101797.84
2023-05-14T05:29:43.023Z,101777.69
2023-05-14T05:33:47.554Z,101783.13
2023-05-14T05:37:51.520Z,101771.69
2023-05-14T05:41:54.819Z,101768.16
2023-05-14T05:45:55.416Z,101769.06
2023-05-14T05:50:02.232Z,101764.66
2023-05-14T05:54:04.075Z,101779.59
2023-05-14T05:58:05.112Z,101791.03
2023-05-14T06:02:05.747Z,101791.00
2023-05-14T06:06:08.812Z,101792.69
2023-05-14T06:10:09.592Z,101792.28
2023-05-14T06:46:02.092Z,101797.88
2023-05-14T06:50:11.866Z,101788.34
2023-05-14T06:54:18.225Z,101787.13
2023-05-14T06:58:20.717Z,101779.00
2023-05-14T07:02:23.628Z,101788.63
2023-05-14T07:06:25.278Z,101785.28
2023-05-14T07:10:26.548Z,101781.81
2023-05-14T07:14:27.108Z,101774.94
2023-05-14T07:18:33.948Z,101774.22
2023-05-14T07:22:41.200Z,101771.59
2023-05-14T07:26:41.330Z,101779.56
2023-05-14T07:30:52.348Z,101783.13
2023-05-14T07:34:54.974Z,101787.06
2023-05-14T07:38:55.477Z,101778.94
2023-05-14T07:42:56.121Z,101783.00
2023-05-14T07:46:56.896Z,101768.84
2023-05-14T07:51:06.535Z,101771.41
2023-05-14T07:55:07.692Z,101759.81
2023-05-14T07:59:11.345Z,101751.66
2023-05-14T08:03:16.793Z,101755.44
2023-05-14T08:07:28.751Z,101753.13
2023-05-14T08:11:39.849Z,101762.56
2023-05-14T08:15:42.951Z,101756.63
2023-05-14T08:19:49.430Z,101764.50
2023-05-14T08:23:53.253Z,101767.69
2023-05-14T08:27:58.351Z,101770.47
2023-05-14T08:32:05.775Z,101768.19
2023-05-14T08:36:15.451Z,101775.00
2023-05-14T08:40:18.391Z,101772.13
2023-05-14T08:44:23.852Z,101765.28
2023-05-14T08:48:31.608Z,101761.97
2023-05-14T08:52:43.003Z,101764.22
2023-05-14T08:56:51.704Z,101768.34
2023-05-14T09:01:03.159Z,101764.97
2023-05-14T09:05:13.397Z,101763.63
2023-05-14T09:09:18.506Z,101757.78
2023-05-14T09:13:47.283Z,101744.31
2023-05-14T09:21:49.852Z,101731.53
2023-05-14T11:34:10.318Z,101628.63
2023-05-14T11:38:16.393Z,101615.94
2023-05-14T11:42:18.601Z,101612.69
2023-05-14T11:46:22.819Z,101646.78
2023-05-14T11:50:30.393Z,101622.19
2023-05-14T11:54:52.743Z,101622.38
2023-05-14T11:59:03.628Z,101615.00
2023-05-14T12:03:04.830Z,101607.84
2023-05-14T12:07:13.120Z,101613.22
2023-05-14T12:11:15.399Z,101579.88
2023-05-14T12:15:18.556Z,101583.09
2023-05-14T12:19:25.834Z,101581.31
2023-05-14T12:23:32.436Z,101591.06
2023-05-14T12:27:37.090Z,101570.75
2023-05-14T12:31:38.516Z,101564.66
2023-05-14T12:35:39.890Z,101538.41
2023-05-14T12:39:41.627Z,101534.06
2023-05-14T12:43:54.791Z,101524.09
2023-05-14T12:47:55.088Z,101529.28
2023-05-14T12:56:19.795Z,101511.00
2023-05-14T13:00:22.365Z,101521.31
2023-05-14T13:04:26.047Z,101526.31
2023-05-14T13:08:29.068Z,101527.25
2023-05-14T13:12:44.645Z,101520.13
2023-05-14T13:17:16.931Z,101507.50
2023-05-14T13:21:49.301Z,101487.22
2023-05-14T13:25:58.157Z,101477.25
2023-05-14T13:30:26.978Z,101473.28
2023-05-14T13:34:36.284Z,101458.25
2023-05-14T13:38:51.069Z,101453.28
2023-05-14T13:43:13.246Z,101456.63
2023-05-14T13:47:37.493Z,101448.81
2023-05-14T13:52:11.091Z,101444.28
2023-05-14T13:56:54.066Z,101434.56
2023-05-14T14:07:12.490Z,101441.09
2023-05-14T14:16:45.372Z,101431.59
2023-05-14T14:21:19.318Z,101457.34
2023-05-14T14:25:23.325Z,101445.13
2023-05-14T14:29:27.276Z,101434.03
2023-05-14T14:33:31.099Z,101436.84
2023-05-14T14:37:32.535Z,101429.47
2023-05-14T14:41:35.955Z,101424.81
2023-05-14T14:45:36.441Z,101419.38
2023-05-14T14:49:38.171Z,101409.59
2023-05-14T14:53:41.578Z,101407.84
2023-05-14T14:57:45.579Z,101399.41
2023-05-14T15:01:51.154Z,101382.63
2023-05-14T15:05:56.204Z,101389.44
2023-05-14T15:10:05.623Z,101381.13
2023-05-14T15:14:13.976Z,101380.66
2023-05-14T15:18:18.721Z,101396.34
2023-05-14T15:22:27.762Z,101396.59
2023-05-14T15:26:33.593Z,101395.34
2023-05-14T15:30:46.542Z,101396.41
2023-05-14T15:35:05.722Z,101395.22
2023-05-14T15:39:13.222Z,101398.63
2023-05-14T15:48:10.336Z,101403.19
2023-05-14T15:57:04.760Z,101404.44
2023-05-14T16:01:21.505Z,101391.31
2023-05-14T16:05:37.008Z,101395.78
2023-05-14T16:09:41.172Z,101398.34
2023-05-14T16:13:41.814Z,101396.47
2023-05-14T16:17:42.724Z,101394.06
2023-05-14T16:21:46.885Z,101394.47
2023-05-14T16:25:48.654Z,101394.25
2023-05-14T16:29:48.461Z,101395.28
2023-05-14T16:34:12.005Z,101396.34
2023-05-14T16:38:20.712Z,101396.28
2023-05-14T16:42:22.794Z,101399.88
2023-05-14T16:46:23.038Z,101398.00
2023-05-14T16:50:23.409Z,101388.81
2023-05-14T16:54:26.297Z,101391.59
2023-05-14T16:58:26.369Z,101381.81
2023-05-14T17:02:27.399Z,101380.81
2023-05-14T17:06:27.814Z,101383.59
2023-05-14T17:10:30.804Z,101381.06
2023-05-14T17:14:31.558Z,101385.59
2023-05-14T17:18:32.417Z,101396.47
2023-05-14T17:22:32.700Z,101390.13
2023-05-14T17:26:35.016Z,101388.59
2023-05-14T17:30:34.478Z,101379.03
2023-05-14T17:34:34.800Z,101374.16
2023-05-14T17:38:39.793Z,101376.25
2023-05-14T17:42:45.617Z,101376.44
2023-05-14T17:46:47.790Z,101370.44
2023-05-14T17:50:50.867Z,101368.78
2023-05-14T17:54:50.657Z,101367.38
2023-05-14T17:58:53.179Z,101369.38
2023-05-14T18:02:54.648Z,101380.19
2023-05-14T18:06:54.756Z,101371.78
2023-05-14T18:10:54.598Z,101380.81
2023-05-14T18:14:56.862Z,101384.31
2023-05-14T18:18:58.046Z,101378.09
2023-05-14T18:22:58.437Z,101379.91
2023-05-14T18:26:58.134Z,101372.22
2023-05-14T18:31:04.913Z,101373.13
2023-05-14T18:35:07.746Z,101366.13
2023-05-14T18:39:08.191Z,101375.13
2023-05-14T18:43:08.029Z,101368.06
2023-05-14T18:47:09.849Z,101369.97
2023-05-14T18:51:11.197Z,101373.41
2023-05-14T18:55:11.485Z,101370.78
2023-05-14T18:59:12.706Z,101380.28
2023-05-14T19:03:18.066Z,101379.28
2023-05-14T19:07:18.662Z,101380.00
2023-05-14T19:11:21.760Z,101374.69
2023-05-14T19:15:23.070Z,101352.13
2023-05-14T19:19:26.196Z,101346.13
2023-05-14T19:23:26.613Z,101340.06
2023-05-14T19:27:27.117Z,101326.81
2023-05-14T19:31:29.162Z,101322.84
2023-05-14T19:35:31.629Z,101312.63
2023-05-14T19:39:31.322Z,101298.75
2023-05-14T19:43:31.156Z,101294.47
2023-05-14T19:47:31.876Z,101290.50
2023-05-14T19:51:34.403Z,101294.97
2023-05-14T19:55:35.045Z,101293.22
2023-05-14T19:59:34.855Z,101274.00
2023-05-14T20:03:36.603Z,101267.88
2023-05-14T20:07:40.542Z,101260.09
2023-05-14T20:11:41.047Z,101273.31
2023-05-14T20:15:41.481Z,101284.88
2023-05-14T20:19:42.071Z,101279.53
2023-05-14T20:23:45.844Z,101276.91
2023-05-14T20:27:49.233Z,101271.56
2023-05-14T20:31:49.817Z,101269.78
2023-05-14T20:35:53.023Z,101265.41
2023-05-14T20:40:05.037Z,101267.13
2023-05-14T20:44:09.071Z,101262.28
2023-05-14T20:48:11.420Z,101262.91
2023-05-14T20:52:11.890Z,101268.03
2023-05-14T20:56:15.072Z,101268.69
2023-05-14T21:00:15.714Z,101267.16
2023-05-14T21:04:16.427Z,101268.00
2023-05-14T21:08:19.468Z,101249.69
2023-05-14T21:12:22.074Z,101247.25
2023-05-14T21:16:22.933Z,101238.91
2023-05-14T21:20:24.631Z,101230.50
2023-05-14T21:24:28.229Z,101229.97
2023-05-14T21:32:52.472Z,101217.81
2023-05-14T21:36:52.921Z,101223.06
2023-05-14T21:40:53.273Z,101217.00
2023-05-14T21:44:55.551Z,101210.06
2023-05-14T21:48:56.064Z,101206.66
2023-05-14T21:52:56.618Z,101195.22
2023-05-14T21:56:57.244Z,101178.56
2023-05-14T22:01:03.548Z,101189.13
2023-05-14T22:05:06.636Z,101210.19
2023-05-14T22:09:09.232Z,101211.03
2023-05-14T22:13:16.018Z,101207.56
2023-05-14T22:17:24.615Z,101191.03
2023-05-14T22:21:27.544Z,101188.50
2023-05-14T22:25:28.592Z,101177.16
2023-05-14T22:29:29.011Z,101185.03
2023-05-14T22:33:39.378Z,101187.69
2023-05-14T22:37:41.165Z,101189.47
2023-05-14T22:41:42.813Z,101178.97
2023-05-14T22:45:45.804Z,101163.19
2023-05-14T22:49:49.337Z,101164.06
2023-05-14T22:53:49.964Z,101161.44
2023-05-14T22:57:54.007Z,101173.72
2023-05-14T23:01:54.645Z,101173.69
2023-05-14T23:05:57.842Z,101160.53
2023-05-14T23:10:02.466Z,101157.06
2023-05-14T23:14:03.320Z,101159.72
2023-05-14T23:18:03.422Z,101160.56
2023-05-14T23:22:06.350Z,101144.81
2023-05-14T23:26:09.946Z,101136.03
2023-05-14T23:30:11.199Z,101136.91
2023-05-14T23:34:11.936Z,101142.16
2023-05-14T23:38:14.944Z,101138.63
2023-05-14T23:42:15.457Z,101133.38
2023-05-14T23:46:15.868Z,101143.91
2023-05-14T23:50:16.358Z,101138.63
2023-05-14T23:54:18.857Z,101140.38
2023-05-14T23:58:19.006Z,101131.56
